Time;durP1;ratioP1;P1;durP2;ratioP2;P2;SDS_P1;SDS_P2;PMS_P1;PMS_P2;Temp;Humidity;BMP_temperature;BMP_pressure;BME280_temperature;BME280_humidity;BME280_pressure;Samples;Min_cycle;Max_cycle;Signal;HPM_P1;HPM_P2
2022/03/06 00:00:42;;;;;;;;;29.50;23.50;;;;;-0.80;64.94;99953.25;6286417;20;2839849;-45
2022/03/06 00:03:11;;;;;;;;;25.33;23.33;;;;;-0.93;65.32;99956.94;6283562;20;3564825;-45
2022/03/06 00:05:39;;;;;;;;;39.50;28.50;;;;;-1.07;65.86;99958.84;6316888;20;2872162;-46
2022/03/06 00:08:08;;;;;;;;;50.00;42.00;;;;;-0.82;65.04;99962.94;6284111;20;2874312;-45
2022/03/06 00:10:36;;;;;;;;;53.50;38.50;;;;;-0.96;65.04;99964.88;6279342;20;2500327;-45
2022/03/06 00:13:05;;;;;;;;;54.50;40.50;;;;;-0.72;64.57;99956.69;6284322;20;2880485;-51
2022/03/06 00:15:33;;;;;;;;;55.50;47.00;;;;;-1.11;65.26;99958.88;6282894;20;2852327;-50
2022/03/06 00:18:02;;;;;;;;;73.00;53.00;;;;;-0.89;65.08;99950.75;6286298;20;2873224;-47
2022/03/06 00:20:30;;;;;;;;;72.00;53.00;;;;;-0.54;63.88;99952.09;6280782;20;2518008;-46
2022/03/06 00:22:59;;;;;;;;;69.00;51.00;;;;;-0.76;64.55;99955.00;6284033;20;2877329;-45
2022/03/06 00:25:27;;;;;;;;;76.00;55.50;;;;;-1.37;66.49;99951.22;6280946;20;2500737;-45
2022/03/06 00:27:56;;;;;;;;;77.00;54.00;;;;;-1.27;66.96;99954.63;6281800;20;2876404;-47
2022/03/06 00:30:25;;;;;;;;;61.00;50.50;;;;;-0.99;65.68;99954.38;6282144;20;2865873;-45
2022/03/06 00:32:54;;;;;;;;;55.00;44.00;;;;;-0.73;64.95;99956.72;6285135;20;3609601;-47
2022/03/06 00:35:24;;;;;;;;;57.00;45.50;;;;;-0.80;64.17;99957.66;6281571;20;2869074;-46
2022/03/06 00:37:53;;;;;;;;;45.33;37.67;;;;;-0.97;64.70;99952.59;6281357;20;3609602;-45
2022/03/06 00:40:22;;;;;;;;;44.67;38.67;;;;;-0.78;65.16;99959.41;6283549;20;3607212;-45
2022/03/06 00:42:50;;;;;;;;;44.50;38.50;;;;;-0.91;65.46;99956.03;6282145;20;2500329;-46
2022/03/06 00:45:19;;;;;;;;;57.00;45.50;;;;;-1.11;65.38;99960.63;6283251;20;2873190;-46
2022/03/06 00:47:48;;;;;;;;;52.50;45.00;;;;;-1.20;66.28;99961.59;6283589;20;2871104;-45
2022/03/06 00:50:16;;;;;;;;;47.00;42.00;;;;;-1.28;67.06;99959.91;6279950;20;2508670;-48
2022/03/06 00:52:45;;;;;;;;;60.00;45.67;;;;;-1.74;68.23;99958.50;6285603;20;2881552;-46
2022/03/06 00:55:14;;;;;;;;;37.00;36.33;;;;;-1.07;66.41;99964.13;6314809;20;3583669;-45
2022/03/06 00:57:42;;;;;;;;;40.00;33.00;;;;;-1.33;66.25;99962.59;6285747;20;2500277;-46
2022/03/06 01:00:11;;;;;;;;;32.50;28.50;;;;;-1.23;66.39;99959.00;6281710;20;2845055;-47
2022/03/06 01:02:39;;;;;;;;;57.33;40.67;;;;;-1.67;68.18;99954.97;6282924;20;3628369;-45
2022/03/06 01:05:08;;;;;;;;;34.00;28.50;;;;;-1.27;67.01;99962.53;6312304;20;2500340;-47
2022/03/06 01:07:37;;;;;;;;;41.67;32.00;;;;;-1.35;66.62;99956.44;6283471;20;3602344;-45
2022/03/06 01:10:08;;;;;;;;;35.33;33.33;;;;;-1.18;67.03;99957.19;6280673;20;3588807;-48
2022/03/06 01:12:36;;;;;;;;;38.67;25.33;;;;;-1.28;66.99;99946.75;6284212;20;3605441;-45
2022/03/06 01:15:06;;;;;;;;;31.67;27.67;;;;;-1.00;66.34;99942.06;6279887;20;3586809;-46
2022/03/06 01:17:34;;;;;;;;;46.00;33.00;;;;;-1.29;67.28;99937.09;6316156;20;2500734;-45
2022/03/06 01:20:05;;;;;;;;;34.00;28.33;;;;;-1.28;67.22;99934.44;6280741;20;3590840;-45
2022/03/06 01:22:34;;;;;;;;;35.33;27.67;;;;;-1.23;66.93;99932.66;6282572;20;3584746;-45
2022/03/06 01:25:05;;;;;;;;;35.00;29.67;;;;;-1.13;66.98;99934.31;6314742;20;3585870;-47
2022/03/06 01:27:34;;;;;;;;;43.33;29.67;;;;;-1.28;67.44;99928.31;6279678;20;3613759;-47
2022/03/06 01:30:05;;;;;;;;;45.50;28.00;;;;;-1.23;66.26;99919.47;6279621;20;2874193;-47
2022/03/06 01:32:34;;;;;;;;;28.00;26.67;;;;;-1.17;66.17;99918.53;6283853;20;3577389;-45
2022/03/06 01:35:04;;;;;;;;;32.00;27.00;;;;;-1.39;66.42;99920.50;6312643;20;2850340;-45
2022/03/06 01:37:34;;;;;;;;;36.50;26.50;;;;;-1.36;66.65;99915.22;6279785;20;2855475;-49
2022/03/06 01:40:08;;;;;;;;;34.33;26.00;;;;;-1.37;66.32;99908.19;6280393;20;3581225;-48
2022/03/06 01:42:41;;;;;;;;;30.00;24.00;;;;;-1.75;67.65;99913.81;6315782;20;2836892;-45
2022/03/06 01:45:13;;;;;;;;;36.67;29.67;;;;;-1.70;68.33;99909.38;6280996;20;3593997;-45
2022/03/06 01:47:51;;;;;;;;;36.67;25.33;;;;;-1.78;67.28;99896.28;6313699;20;3586807;-45
2022/03/06 01:50:30;;;;;;;;;44.00;25.00;;;;;-1.99;69.42;99892.06;6311681;20;3603458;-45
2022/03/06 01:53:03;;;;;;;;;32.33;24.33;;;;;-1.83;68.90;99892.81;6278639;20;3572120;-47
2022/03/06 01:55:32;;;;;;;;;31.00;23.33;;;;;-2.14;69.54;99898.28;6314176;20;3576811;-51
2022/03/06 01:58:09;;;;;;;;;20.00;19.00;;;;;-1.79;68.77;99879.63;6281904;20;3551256;-49
2022/03/06 02:00:49;;;;;;;;;32.00;21.33;;;;;-2.05;68.86;99892.97;6311112;20;3588785;-50
2022/03/06 02:03:19;;;;;;;;;19.75;16.00;;;;;-2.55;70.48;99890.66;6296006;20;1852383;-46
2022/03/06 02:05:48;;;;;;;;;32.00;21.67;;;;;-2.26;69.73;99885.22;6312112;20;3582665;-47
2022/03/06 02:08:16;;;;;;;;;21.00;17.00;;;;;-2.51;70.67;99885.34;6312720;20;2831757;-49
2022/03/06 02:10:47;;;;;;;;;24.33;18.00;;;;;-2.57;71.23;99888.03;6282400;20;2814914;-43
2022/03/06 02:13:17;;;;;;;;;28.20;21.60;;;;;-2.44;70.79;99889.72;6333679;20;2828533;-44
2022/03/06 02:15:46;;;;;;;;;29.33;27.33;;;;;-2.46;70.85;99878.31;6281481;20;3580427;-44
2022/03/06 02:18:14;;;;;;;;;40.50;32.50;;;;;-2.63;71.79;99887.16;6308684;20;2502364;-44
2022/03/06 02:20:42;;;;;;;;;45.50;35.00;;;;;-2.80;71.52;99884.63;6275458;20;2502330;-44
2022/03/06 02:23:10;;;;;;;;;45.50;35.00;;;;;-2.29;70.88;99893.13;6281945;20;2861748;-43
2022/03/06 02:25:38;;;;;;;;;39.33;32.33;;;;;-2.16;70.10;99888.66;6281626;20;3605531;-45
2022/03/06 02:28:10;;;;;;;;;42.00;33.50;;;;;-1.95;69.36;99896.38;6287417;20;2866916;-44
2022/03/06 02:30:44;;;;;;;;;46.50;36.50;;;;;-2.50;70.09;99887.13;6281317;20;2500334;-46
2022/03/06 02:33:13;;;;;;;;;34.67;27.33;;;;;-2.56;71.64;99887.13;6287507;20;3589934;-44
2022/03/06 02:35:42;;;;;;;;;38.00;31.00;;;;;-2.18;70.23;99880.78;6285774;20;2857520;-45
2022/03/06 02:38:11;;;;;;;;;34.33;28.67;;;;;-2.07;69.35;99884.22;6285343;20;3575238;-43
2022/03/06 02:40:42;;;;;;;;;33.33;24.67;;;;;-2.07;69.60;99888.59;6284067;20;3585766;-43
2022/03/06 02:43:14;;;;;;;;;26.00;21.33;;;;;-1.68;68.14;99887.41;6318016;20;3563855;-44
2022/03/06 02:45:44;;;;;;;;;37.67;25.67;;;;;-1.48;67.30;99891.63;6318289;20;3603341;-44
2022/03/06 02:48:13;;;;;;;;;31.00;21.00;;;;;-2.08;68.52;99893.00;6282844;20;3584603;-44
2022/03/06 02:50:44;;;;;;;;;25.33;22.00;;;;;-2.29;69.67;99885.22;6282602;20;3563764;-45
2022/03/06 02:53:13;;;;;;;;;39.00;30.00;;;;;-2.47;70.77;99888.88;6316968;20;2867981;-45
2022/03/06 02:55:42;;;;;;;;;34.67;29.33;;;;;-2.55;70.98;99878.38;6287375;20;3589163;-44
2022/03/06 02:58:10;;;;;;;;;39.50;31.00;;;;;-2.82;72.46;99875.88;6318594;20;2859898;-44
2022/03/06 03:00:39;;;;;;;;;40.67;29.33;;;;;-2.95;72.93;99870.69;6284919;20;3615973;-43
2022/03/06 03:03:08;;;;;;;;;30.33;25.00;;;;;-2.73;72.61;99881.97;6286439;20;3578535;-43
2022/03/06 03:05:37;;;;;;;;;39.67;27.67;;;;;-2.77;72.63;99884.63;6315820;20;3610723;-44
2022/03/06 03:08:07;;;;;;;;;37.00;32.33;;;;;-2.94;73.11;99882.94;6286681;20;3584760;-44
2022/03/06 03:10:36;;;;;;;;;40.00;30.00;;;;;-2.21;71.24;99884.31;6317222;20;3603407;-45
2022/03/06 03:13:04;;;;;;;;;36.50;27.00;;;;;-2.52;71.33;99881.00;6285810;20;2849279;-44
2022/03/06 03:15:33;;;;;;;;;42.67;28.33;;;;;-2.43;71.53;99883.56;6286395;20;3603382;-44
2022/03/06 03:18:01;;;;;;;;;27.67;25.00;;;;;-2.72;71.83;99882.84;6283496;20;3575224;-44
2022/03/06 03:20:32;;;;;;;;;30.50;22.83;;;;;-2.53;71.25;99888.88;6340291;20;2839855;-44
2022/03/06 03:23:01;;;;;;;;;21.50;21.50;;;;;-2.30;70.92;99897.50;6316391;20;2775319;-44
2022/03/06 03:25:30;;;;;;;;;21.20;15.40;;;;;-2.55;70.69;99886.28;6341181;20;2825392;-46
2022/03/06 03:27:58;;;;;;;;;26.50;18.50;;;;;-2.54;70.92;99882.75;6285939;20;2836841;-44
2022/03/06 03:30:27;;;;;;;;;26.00;19.67;;;;;-2.40;70.62;99884.44;6284222;20;3581545;-45
2022/03/06 03:32:56;;;;;;;;;24.00;21.00;;;;;-1.97;69.03;99885.03;6316457;20;3571195;-44
2022/03/06 03:35:25;;;;;;;;;26.33;21.33;;;;;-1.75;67.99;99888.34;6315399;20;3560644;-50
2022/03/06 03:37:54;;;;;;;;;27.67;18.00;;;;;-2.27;69.35;99892.22;6312691;20;3557562;-49
2022/03/06 03:40:24;;;;;;;;;25.00;19.00;;;;;-2.28;69.31;99887.88;6338215;20;2831504;-47
2022/03/06 03:42:51;;;;;;;;;19.00;17.00;;;;;-2.28;70.30;99889.63;6285861;20;2833612;-46
2022/03/06 03:45:21;;;;;;;;;23.40;15.40;;;;;-2.49;70.20;99891.47;6308715;20;2835801;-46
2022/03/06 03:47:52;;;;;;;;;38.00;24.17;;;;;-2.28;69.71;99892.25;6308297;20;3605532;-45
2022/03/06 03:50:22;;;;;;;;;24.80;21.80;;;;;-2.74;71.24;99906.53;6305007;20;2835654;-45
2022/03/06 03:52:51;;;;;;;;;34.00;27.00;;;;;-2.75;71.57;99902.13;6286561;20;3584640;-44
2022/03/06 03:55:20;;;;;;;;;11.25;10.75;;;;;-3.12;72.17;99898.75;6334016;20;1837904;-44
2022/03/06 03:57:48;;;;;;;;;23.00;19.00;;;;;-2.90;71.81;99900.44;6316510;20;2828483;-47
2022/03/06 04:00:16;;;;;;;;;47.33;33.00;;;;;-3.40;72.91;99908.44;6284466;20;3606612;-45
2022/03/06 04:02:45;;;;;;;;;43.33;40.00;;;;;-3.50;73.67;99912.84;6288189;20;3602360;-47
2022/03/06 04:05:13;;;;;;;;;50.00;40.00;;;;;-3.40;73.57;99913.69;6279992;20;2502452;-45
2022/03/06 04:07:41;;;;;;;;;50.00;43.00;;;;;-3.52;73.46;99919.84;6278524;20;2502350;-45
2022/03/06 04:10:11;;;;;;;;;50.00;45.00;;;;;-3.71;74.33;99918.97;6280928;20;2866125;-47
2022/03/06 04:12:38;;;;;;;;;56.00;42.50;;;;;-3.76;75.19;99916.34;6282249;20;2502425;-44
2022/03/06 04:15:07;;;;;;;;;55.00;40.00;;;;;-3.82;75.39;99915.44;6284163;20;2870036;-45
2022/03/06 04:17:35;;;;;;;;;44.50;36.50;;;;;-3.60;75.35;99911.09;6279041;20;2502347;-48
2022/03/06 04:20:05;;;;;;;;;37.00;30.00;;;;;-3.61;75.16;99915.44;6281951;20;2846109;-45
2022/03/06 04:22:34;;;;;;;;;41.00;30.00;;;;;-3.62;75.18;99912.84;6283513;20;2857011;-49
2022/03/06 04:25:04;;;;;;;;;30.00;22.00;;;;;-3.25;74.66;99913.66;6285978;20;3558609;-46
2022/03/06 04:27:32;;;;;;;;;29.50;27.00;;;;;-3.06;73.52;99903.97;6315536;20;2833594;-45
2022/03/06 04:30:01;;;;;;;;;26.33;24.33;;;;;-3.13;73.19;99912.78;6283043;20;3578486;-44
2022/03/06 04:32:28;;;;;;;;;36.00;31.50;;;;;-3.00;73.49;99913.59;6316531;20;2848214;-46
2022/03/06 04:34:56;;;;;;;;;33.50;30.00;;;;;-2.82;72.99;99912.66;6283535;20;2849204;-49
2022/03/06 04:37:24;;;;;;;;;35.00;28.00;;;;;-2.68;72.88;99910.88;6280039;20;2845062;-50
2022/03/06 04:39:53;;;;;;;;;60.00;39.67;;;;;-2.57;71.89;99905.56;6281555;20;2874334;-45
2022/03/06 04:42:21;;;;;;;;;65.50;47.00;;;;;-2.55;71.69;99907.31;6311202;20;2502357;-45
2022/03/06 04:44:50;;;;;;;;;66.50;50.00;;;;;-2.01;69.76;99910.47;6282402;20;2508670;-44
2022/03/06 04:47:18;;;;;;;;;57.00;44.00;;;;;-2.08;69.09;99914.03;6279540;20;2500408;-46
2022/03/06 04:49:46;;;;;;;;;37.00;25.00;;;;;-1.76;68.70;99910.31;6281021;20;2856567;-48
2022/03/06 04:52:14;;;;;;;;;32.33;29.00;;;;;-1.79;69.16;99913.84;6284187;20;3586824;-45
2022/03/06 04:54:42;;;;;;;;;34.00;31.00;;;;;-1.72;68.13;99913.78;6314885;20;2856496;-45
2022/03/06 04:57:11;;;;;;;;;35.33;31.00;;;;;-1.87;68.39;99913.03;6283546;20;3592070;-47
2022/03/06 04:59:40;;;;;;;;;31.33;25.00;;;;;-1.75;68.56;99911.16;6284583;20;2814961;-44
2022/03/06 05:02:09;;;;;;;;;40.67;30.33;;;;;-1.85;68.90;99913.00;6314685;20;3597129;-46
2022/03/06 05:04:38;;;;;;;;;38.67;26.00;;;;;-1.71;68.55;99913.78;6282219;20;3607667;-46
2022/03/06 05:07:06;;;;;;;;;38.00;30.50;;;;;-1.88;68.74;99915.66;6316051;20;2856779;-44
2022/03/06 05:09:34;;;;;;;;;53.50;39.50;;;;;-1.94;69.08;99910.44;6280454;20;2500286;-45
2022/03/06 05:12:02;;;;;;;;;44.00;37.00;;;;;-2.12;69.26;99908.81;6284147;20;2844033;-46
2022/03/06 05:14:30;;;;;;;;;50.50;38.00;;;;;-2.12;68.73;99907.03;6280665;20;2500269;-45
2022/03/06 05:16:59;;;;;;;;;38.33;33.00;;;;;-2.19;69.60;99901.84;6283950;20;3600331;-48
2022/03/06 05:19:27;;;;;;;;;39.00;30.00;;;;;-2.27;70.11;99901.88;6280507;20;2500309;-46
2022/03/06 05:21:55;;;;;;;;;38.00;28.00;;;;;-1.79;68.81;99915.56;6286433;20;2865008;-44
2022/03/06 05:24:24;;;;;;;;;24.67;24.00;;;;;-2.18;69.85;99914.97;6283818;20;3554413;-47
2022/03/06 05:26:53;;;;;;;;;66.33;42.33;;;;;-2.00;69.58;99916.63;6315019;20;3639800;-45
2022/03/06 05:29:21;;;;;;;;;45.50;35.00;;;;;-1.87;68.43;99920.00;6310867;20;2500308;-45
2022/03/06 05:31:49;;;;;;;;;30.00;28.00;;;;;-1.93;68.65;99913.03;6285267;20;2846128;-44
2022/03/06 05:34:18;;;;;;;;;25.67;21.00;;;;;-1.83;68.32;99913.84;6282359;20;3571065;-45
2022/03/06 05:36:46;;;;;;;;;31.67;23.33;;;;;-1.71;68.08;99913.78;6313565;20;3569255;-44
2022/03/06 05:39:16;;;;;;;;;46.00;37.33;;;;;-1.43;67.21;99917.03;6312846;20;3611674;-46
2022/03/06 05:41:43;;;;;;;;;10.33;0.67;;;;;-1.48;66.99;99917.94;6285254;20;3487848;-45
2022/03/06 05:44:11;;;;;;;;;46.50;37.00;;;;;-1.36;66.34;99915.22;6310184;20;2500262;-44
2022/03/06 05:46:39;;;;;;;;;40.50;34.00;;;;;-1.84;67.76;99913.00;6279047;20;2500287;-45
2022/03/06 05:49:12;;;;;;;;;40.50;32.00;;;;;-1.43;66.93;99913.53;6278890;20;2500273;-46
2022/03/06 05:51:42;;;;;;;;;38.00;35.50;;;;;-1.24;66.40;99922.97;6279471;20;2500313;-45
2022/03/06 05:54:11;;;;;;;;;48.67;35.33;;;;;-1.01;66.03;99921.88;6280770;20;3593030;-44
2022/03/06 05:56:39;;;;;;;;;38.50;35.00;;;;;-1.01;64.88;99916.59;6279742;20;2500306;-45
2022/03/06 05:59:08;;;;;;;;;26.00;23.33;;;;;-0.70;64.63;99925.91;6281139;20;3563134;-44
2022/03/06 06:01:38;;;;;;;;;41.67;36.33;;;;;-1.20;65.33;99927.34;6312524;20;3610658;-45
2022/03/06 06:04:07;;;;;;;;;47.00;34.00;;;;;-1.16;65.67;99923.81;6283863;20;2872111;-46
2022/03/06 06:06:35;;;;;;;;;59.50;47.50;;;;;-1.31;66.00;99921.31;6282707;20;2847105;-45
2022/03/06 06:09:05;;;;;;;;;62.00;51.00;;;;;-1.02;65.69;99928.91;6282634;20;3584621;-44
2022/03/06 06:11:33;;;;;;;;;57.50;35.00;;;;;-1.23;66.20;99927.38;6276332;20;2500323;-44
2022/03/06 06:14:03;;;;;;;;;35.50;26.00;;;;;-0.97;65.83;99934.16;6280226;20;2860821;-47
2022/03/06 06:16:32;;;;;;;;;25.67;21.33;;;;;-0.72;64.89;99927.69;6283143;20;3581485;-46
2022/03/06 06:19:01;;;;;;;;;33.67;26.67;;;;;-0.72;65.11;99932.09;6312340;20;3591915;-46
2022/03/06 06:21:30;;;;;;;;;20.00;17.00;;;;;-1.12;65.78;99924.63;6279135;20;2827453;-44
2022/03/06 06:23:59;;;;;;;;;24.20;18.60;;;;;-0.55;64.83;99930.13;6336126;20;2835702;-45
2022/03/06 06:26:28;;;;;;;;;19.00;15.67;;;;;-0.20;64.07;99933.19;6280943;20;3551264;-48
2022/03/06 06:28:56;;;;;;;;;22.00;17.00;;;;;-0.41;65.02;99931.72;6312880;20;2833113;-47
2022/03/06 06:31:25;;;;;;;;;25.00;14.50;;;;;-0.02;64.26;99928.53;6280030;20;2811770;-46
2022/03/06 06:33:54;;;;;;;;;17.50;14.00;;;;;0.20;64.04;99926.44;6279819;20;2813791;-46
2022/03/06 06:36:22;;;;;;;;;20.33;18.33;;;;;0.50;63.38;99923.31;6282567;20;3561859;-48
2022/03/06 06:38:50;;;;;;;;;31.50;26.00;;;;;0.48;63.43;99928.63;6310603;20;2500347;-48
2022/03/06 06:41:20;;;;;;;;;55.00;38.33;;;;;0.84;63.05;99927.13;6281767;20;2894165;-45
2022/03/06 06:43:49;;;;;;;;;21.67;16.00;;;;;0.85;62.79;99928.00;6311994;20;3557513;-47
2022/03/06 06:46:18;;;;;;;;;22.67;17.67;;;;;0.94;61.81;99925.16;6281344;20;3566919;-46
2022/03/06 06:48:46;;;;;;;;;16.00;11.50;;;;;1.27;62.78;99930.72;6312824;20;2795053;-47
2022/03/06 06:51:15;;;;;;;;;17.67;17.00;;;;;0.71;63.19;99936.19;6281935;20;3569347;-50
2022/03/06 06:53:43;;;;;;;;;16.00;16.00;;;;;1.06;62.19;99930.25;6313045;20;3555428;-46
2022/03/06 06:56:13;;;;;;;;;16.80;15.40;;;;;1.53;60.98;99936.38;6335708;20;2831495;-46
2022/03/06 06:58:42;;;;;;;;;23.00;16.67;;;;;1.73;60.53;99940.34;6280307;20;3573205;-52
2022/03/06 07:01:12;;;;;;;;;18.80;16.00;;;;;1.52;60.07;99937.25;6336287;20;2811899;-52
2022/03/06 07:03:40;;;;;;;;;25.00;20.00;;;;;1.68;59.51;99936.94;6280791;20;2500289;-46
2022/03/06 07:06:09;;;;;;;;;20.00;16.00;;;;;2.19;59.27;99939.34;6279207;20;3566888;-48
2022/03/06 07:08:38;;;;;;;;;20.00;17.00;;;;;3.39;55.23;99941.56;6312760;20;3557573;-50
2022/03/06 07:11:05;;;;;;;;;17.50;17.00;;;;;3.61;54.21;99934.72;6309918;20;2832541;-51
2022/03/06 07:13:34;;;;;;;;;18.00;16.00;;;;;4.69;51.04;99942.00;6284179;20;3573137;-47
2022/03/06 07:16:03;;;;;;;;;22.00;21.00;;;;;6.18;47.70;99948.13;6319265;20;2835779;-52
2022/03/06 07:18:31;;;;;;;;;32.00;28.00;;;;;4.56;51.74;99934.44;6286936;20;2832601;-47
2022/03/06 07:21:02;;;;;;;;;38.33;35.67;;;;;3.24;54.73;99940.22;6285327;20;3613844;-47
2022/03/06 07:23:32;;;;;;;;;32.00;29.00;;;;;4.06;54.45;99939.56;6286218;20;2844108;-49
2022/03/06 07:25:59;;;;;;;;;14.00;10.00;;;;;3.30;55.84;99945.34;6285578;20;2787804;-48
2022/03/06 07:28:29;;;;;;;;;72.00;56.00;;;;;3.47;55.07;99936.91;6284769;20;2882528;-48
2022/03/06 07:30:58;;;;;;;;;20.33;15.00;;;;;3.07;55.74;99940.66;6312629;20;3528432;-47
2022/03/06 07:33:26;;;;;;;;;23.00;19.00;;;;;3.19;55.21;99936.81;6318710;20;2777328;-48
2022/03/06 07:35:55;;;;;;;;;21.00;18.33;;;;;3.37;54.51;99943.38;6283865;20;3571053;-47
2022/03/06 07:38:23;;;;;;;;;28.33;21.67;;;;;3.41;54.22;99945.03;6314511;20;3575216;-46
2022/03/06 07:40:52;;;;;;;;;30.00;30.00;;;;;3.71;53.62;99945.94;6283788;20;3590101;-48
2022/03/06 07:43:22;;;;;;;;;17.20;15.80;;;;;3.66;53.48;99950.50;6309074;20;2808597;-46
2022/03/06 07:45:51;;;;;;;;;20.67;19.33;;;;;3.60;53.35;99946.25;6287566;20;3560866;-48
2022/03/06 07:48:19;;;;;;;;;16.00;16.00;;;;;3.71;52.81;99952.13;6286155;20;2819144;-47
2022/03/06 07:50:48;;;;;;;;;17.00;15.00;;;;;3.67;52.67;99949.59;6285144;20;3553537;-48
2022/03/06 07:53:17;;;;;;;;;60.50;47.00;;;;;4.41;51.54;99950.88;6316789;20;2873249;-48
2022/03/06 07:55:45;;;;;;;;;62.00;50.50;;;;;3.83;52.70;99950.03;6280601;20;2504415;-51
2022/03/06 07:58:13;;;;;;;;;18.67;15.67;;;;;3.77;52.09;99947.56;6285021;20;3568973;-46
2022/03/06 08:00:42;;;;;;;;;28.00;21.50;;;;;4.38;52.12;99948.31;6315412;20;2837800;-48
2022/03/06 08:03:11;;;;;;;;;24.50;20.00;;;;;4.15;51.09;99941.94;6287989;20;2500272;-46
2022/03/06 08:05:40;;;;;;;;;24.00;16.00;;;;;4.69;50.61;99948.19;6289813;20;3553491;-45
2022/03/06 08:08:09;;;;;;;;;18.20;16.20;;;;;4.80;49.72;99937.19;6262042;20;2812932;-49
2022/03/06 08:10:38;;;;;;;;;31.00;26.00;;;;;4.94;50.63;99934.91;6282745;20;2500944;-46
2022/03/06 08:13:06;;;;;;;;;36.50;29.50;;;;;5.16;50.17;99940.38;6286575;20;2867957;-46
2022/03/06 08:15:34;;;;;;;;;14.50;12.00;;;;;5.02;49.25;99927.53;6286604;20;2786676;-50
2022/03/06 08:18:04;;;;;;;;;20.00;18.33;;;;;4.62;49.69;99928.91;6290378;20;3555547;-49
2022/03/06 08:20:32;;;;;;;;;18.67;16.33;;;;;5.23;49.05;99928.56;6316533;20;3554424;-51
2022/03/06 08:23:01;;;;;;;;;15.00;13.67;;;;;4.89;48.99;99918.25;6316561;20;3538999;-50
2022/03/06 08:25:29;;;;;;;;;18.00;17.00;;;;;5.14;48.60;99925.38;6285059;20;2833577;-50
2022/03/06 08:27:58;;;;;;;;;23.00;19.00;;;;;4.91;48.35;99910.22;6286665;20;2830502;-51
2022/03/06 08:30:26;;;;;;;;;9.00;9.00;;;;;4.98;48.11;99915.28;6287032;20;2745125;-47
2022/03/06 08:32:55;;;;;;;;;29.50;23.50;;;;;5.43;46.99;99911.88;6284857;20;2845068;-46
2022/03/06 08:35:23;;;;;;;;;10.50;9.00;;;;;4.12;49.75;99907.50;6288109;20;2769008;-51
2022/03/06 08:37:51;;;;;;;;;15.50;10.50;;;;;5.00;48.67;99908.13;6287655;20;2796122;-47
2022/03/06 08:40:20;;;;;;;;;15.67;15.67;;;;;4.40;48.82;99901.31;6285522;20;3562831;-51
2022/03/06 08:42:49;;;;;;;;;14.33;12.67;;;;;3.85;50.22;99913.69;6289333;20;3521047;-51
2022/03/06 08:45:22;;;;;;;;;24.00;22.00;;;;;4.95;49.19;99903.84;6320176;20;2834662;-47
2022/03/06 08:47:51;;;;;;;;;27.33;17.00;;;;;4.92;47.96;99899.50;6288493;20;3577370;-49
2022/03/06 08:50:18;;;;;;;;;18.00;16.00;;;;;4.31;49.62;99894.47;6317454;20;2823149;-49
2022/03/06 08:52:47;;;;;;;;;21.33;18.00;;;;;4.52;49.36;99900.88;6282940;20;3559561;-47
2022/03/06 08:55:16;;;;;;;;;22.00;16.00;;;;;4.94;49.18;99905.66;6289172;20;3547093;-49
2022/03/06 08:57:44;;;;;;;;;22.67;14.67;;;;;4.64;48.85;99896.09;6319092;20;3565884;-49
2022/03/06 09:00:16;;;;;;;;;14.50;14.00;;;;;4.59;48.99;99912.19;6319990;20;2779589;-48
2022/03/06 09:02:44;;;;;;;;;6.00;6.00;;;;;4.70;49.30;99909.16;6306486;20;1822711;-45
2022/03/06 09:05:13;;;;;;;;;14.00;12.50;;;;;4.85;48.40;99903.31;6321285;20;2775259;-47
2022/03/06 09:07:41;;;;;;;;;15.00;13.50;;;;;5.17;48.65;99906.63;6286653;20;2811718;-46
2022/03/06 09:10:09;;;;;;;;;22.33;18.33;;;;;5.37;47.73;99906.78;6286396;20;3552287;-47
2022/03/06 09:12:39;;;;;;;;;22.50;15.00;;;;;6.00;46.90;99901.75;6316256;20;2805517;-47
2022/03/06 09:15:09;;;;;;;;;22.50;20.50;;;;;5.69;46.86;99907.38;6272725;20;2501833;-48
2022/03/06 09:17:42;;;;;;;;;24.00;20.00;;;;;6.04;46.09;99910.50;6276014;20;2498125;-47
2022/03/06 09:20:11;;;;;;;;;14.33;14.33;;;;;5.62;47.00;99906.72;6285993;20;2804855;-48
2022/03/06 09:22:40;;;;;;;;;20.33;14.67;;;;;6.06;46.10;99901.53;6316603;20;3539816;-46
2022/03/06 09:25:09;;;;;;;;;18.67;17.67;;;;;5.56;46.88;99898.13;6315707;20;3562723;-45
2022/03/06 09:27:37;;;;;;;;;19.00;13.50;;;;;5.59;47.41;99900.66;6314231;20;2805514;-45
2022/03/06 09:30:08;;;;;;;;;23.33;19.00;;;;;6.33;46.03;99896.00;6283967;20;3558600;-46
2022/03/06 09:32:39;;;;;;;;;15.33;10.00;;;;;5.62;45.24;99898.75;6312961;20;2786803;-47
2022/03/06 09:35:10;;;;;;;;;16.67;15.67;;;;;5.99;44.72;99905.34;6313000;20;3538732;-49
2022/03/06 09:37:43;;;;;;;;;40.50;34.50;;;;;6.71;44.33;99894.41;6313862;20;2866973;-46
2022/03/06 09:40:12;;;;;;;;;16.00;16.00;;;;;6.76;43.85;99887.06;6285292;20;2500276;-46
2022/03/06 09:42:41;;;;;;;;;27.00;22.00;;;;;6.69;44.12;99890.94;6284925;20;2500212;-49
2022/03/06 09:45:13;;;;;;;;;25.67;17.00;;;;;6.87;44.10;99883.06;6286570;20;3565850;-45
2022/03/06 09:47:44;;;;;;;;;32.00;30.00;;;;;6.55;44.62;99887.97;6285601;20;2853391;-49
2022/03/06 09:50:15;;;;;;;;;6.00;5.00;;;;;6.57;43.15;99880.78;6285896;20;3455529;-46
2022/03/06 09:52:44;;;;;;;;;17.50;17.00;;;;;5.97;44.87;99879.69;6286818;20;2816424;-47
2022/03/06 09:55:13;;;;;;;;;20.67;17.67;;;;;6.20;44.74;99882.28;6285536;20;3551318;-45
2022/03/06 09:57:42;;;;;;;;;31.00;26.00;;;;;7.31;43.08;99874.91;6295740;20;2847131;-44
2022/03/06 10:00:11;;;;;;;;;28.50;21.00;;;;;7.59;42.20;99878.06;6284318;20;2850324;-44
2022/03/06 10:02:57;;;;;;;;;20.00;15.00;;;;;7.84;42.40;99871.56;6272477;20;2829522;-45
2022/03/06 10:05:39;;;;;;;;;15.00;13.00;;;;;7.05;41.79;99871.59;6284833;20;3524293;-49
2022/03/06 10:08:25;;;;;;;;;12.20;10.80;;;;;6.49;43.04;99874.91;6340491;20;2756472;-45
2022/03/06 10:11:05;;;;;;;;;16.50;14.00;;;;;6.46;42.94;99878.56;6285981;20;2819008;-45
2022/03/06 10:13:44;;;;;;;;;15.33;12.67;;;;;6.59;42.82;99868.25;6306743;20;1830699;-45
2022/03/06 10:16:18;;;;;;;;;21.00;18.67;;;;;7.42;41.82;99869.94;6316138;20;3561700;-45
2022/03/06 10:18:55;;;;;;;;;22.50;22.50;;;;;6.50;43.04;99864.19;6314858;20;2487842;-48
2022/03/06 10:21:32;;;;;;;;;23.33;19.33;;;;;7.00;42.04;99868.25;6285804;20;3562853;-48
2022/03/06 10:24:06;;;;;;;;;69.67;53.33;;;;;7.60;41.29;99877.09;6316995;20;3616944;-53
2022/03/06 10:26:37;;;;;;;;;26.00;18.00;;;;;6.91;42.38;99874.00;6316827;20;2841965;-50
2022/03/06 10:29:12;;;;;;;;;38.00;33.67;;;;;7.80;40.71;99870.84;6283674;20;3613746;-50
2022/03/06 10:31:58;;;;;;;;;22.50;18.50;;;;;7.94;40.55;99864.81;6318309;20;2819040;-48
2022/03/06 10:34:41;;;;;;;;;28.50;21.50;;;;;7.33;41.14;99865.03;6279951;20;2843097;-47
2022/03/06 10:37:13;;;;;;;;;33.50;26.00;;;;;7.05;42.23;99860.91;6281344;20;2498290;-46
2022/03/06 10:39:48;;;;;;;;;27.00;23.00;;;;;7.40;41.28;99855.81;6282793;20;2500270;-47
2022/03/06 10:46:34;;;;;;;;;35.00;28.50;;;;;7.39;41.92;99848.72;6281454;20;2850283;-46
2022/03/06 10:49:16;;;;;;;;;71.33;52.67;;;;;8.01;41.00;99842.22;6284198;20;3651315;-47
2022/03/06 10:51:50;;;;;;;;;50.67;40.33;;;;;7.06;42.38;99840.41;6319797;20;2865984;-48
2022/03/06 10:54:57;;;;;;;;;22.00;21.00;;;;;7.66;40.32;99834.09;6301796;20;2829570;-47
2022/03/06 10:57:26;;;;;;;;;42.50;38.50;;;;;8.53;39.40;99828.97;6288028;20;2864828;-50
2022/03/06 10:59:57;;;;;;;;;34.50;28.50;;;;;7.65;40.88;99834.16;6286899;20;2858577;-52
2022/03/06 11:02:26;;;;;;;;;30.00;26.00;;;;;8.19;40.63;99828.88;6287423;20;2843115;-48
2022/03/06 11:04:58;;;;;;;;;33.67;29.33;;;;;8.49;39.88;99822.03;6285245;20;2860862;-46
2022/03/06 11:07:29;;;;;;;;;26.50;23.50;;;;;8.11;39.77;99811.41;6316505;20;2852769;-46
2022/03/06 11:09:58;;;;;;;;;29.00;26.00;;;;;8.46;39.63;99814.16;6284483;20;2500362;-46
2022/03/06 11:12:30;;;;;;;;;30.67;27.00;;;;;8.81;39.69;99810.59;6286054;20;2852426;-48
2022/03/06 11:15:05;;;;;;;;;23.00;21.50;;;;;8.61;39.01;99808.94;6298488;20;2833658;-48
2022/03/06 11:17:35;;;;;;;;;26.00;26.00;;;;;8.94;38.43;99812.53;6286634;20;2830479;-50
2022/03/06 11:20:05;;;;;;;;;34.50;27.00;;;;;8.96;38.40;99804.44;6285516;20;2849277;-52